Time;durP1;ratioP1;P1;durP2;ratioP2;P2;SDS_P1;SDS_P2;PMS_P1;PMS_P2;Temp;Humidity;BMP_temperature;BMP_pressure;BME280_temperature;BME280_humidity;BME280_pressure;Samples;Min_cycle;Max_cycle;Signal;HPM_P1;HPM_P2
2024/01/07 00:02:13;;;;;;;;;5.33;3.00;;;;;-144.62;100.00;60556.56;5041931;28;45372;-76
2024/01/07 00:04:40;;;;;;;;;6.00;6.00;;;;;-144.62;100.00;60556.56;5034135;28;46212;-76
2024/01/07 00:07:06;;;;;;;;;3.00;3.00;;;;;-144.62;100.00;60556.56;5041385;28;45374;-76
2024/01/07 00:09:31;;;;;;;;;3.00;3.00;;;;;-144.62;100.00;60556.56;5038977;27;45155;-75
2024/01/07 00:11:56;;;;;;;;;5.00;5.00;;;;;-144.62;100.00;60556.56;5034514;28;45316;-74
2024/01/07 00:14:22;;;;;;;;;10.33;5.00;;;;;-144.62;100.00;60556.56;5034997;28;46166;-74
2024/01/07 00:16:47;;;;;;;;;6.00;3.00;;;;;-144.62;100.00;60556.56;5033966;28;46397;-74
2024/01/07 00:19:13;;;;;;;;;2.00;1.00;;;;;-144.62;100.00;60556.56;5038364;28;45640;-74
2024/01/07 00:21:38;;;;;;;;;7.67;3.00;;;;;-144.62;100.00;60556.56;5033733;28;45592;-74
2024/01/07 00:24:04;;;;;;;;;10.00;5.67;;;;;-144.62;100.00;60556.56;5039729;28;45497;-75
2024/01/07 00:26:29;;;;;;;;;3.00;3.00;;;;;-144.62;100.00;60556.56;5039498;28;45288;-74
2024/01/07 00:28:54;;;;;;;;;5.33;5.00;;;;;-144.62;100.00;60556.56;5040967;28;45462;-74
2024/01/07 00:31:20;;;;;;;;;6.00;4.33;;;;;-144.62;100.00;60556.56;5037821;28;45289;-74
2024/01/07 00:33:45;;;;;;;;;4.33;4.33;;;;;-144.62;100.00;60556.56;5040542;28;50461;-74
2024/01/07 00:36:10;;;;;;;;;5.67;5.67;;;;;-144.62;100.00;60556.56;5039540;28;45300;-74
2024/01/07 00:38:36;;;;;;;;;8.00;7.00;;;;;-144.62;100.00;60556.56;5040889;28;45570;-74
2024/01/07 00:41:01;;;;;;;;;6.33;6.00;;;;;-144.62;100.00;60556.56;5039738;28;45315;-74
2024/01/07 00:43:26;;;;;;;;;7.33;6.00;;;;;-144.62;100.00;60556.56;5040431;28;45467;-74
2024/01/07 00:45:52;;;;;;;;;3.00;3.00;;;;;-144.62;100.00;60556.56;5040093;28;45357;-74
2024/01/07 00:48:17;;;;;;;;;3.00;3.00;;;;;-144.62;100.00;60556.56;5039271;28;45473;-74
2024/01/07 00:50:42;;;;;;;;;5.33;5.00;;;;;-144.62;100.00;60556.56;5034539;28;45401;-75
2024/01/07 00:53:08;;;;;;;;;7.00;6.00;;;;;-144.62;100.00;60556.56;5035952;27;51324;-74
2024/01/07 00:55:35;;;;;;;;;6.33;4.33;;;;;-144.62;100.00;60556.56;5032551;28;45247;-74
2024/01/07 00:58:01;;;;;;;;;5.67;5.67;;;;;-144.62;100.00;60556.56;5038391;28;45455;-74
2024/01/07 01:00:27;;;;;;;;;2.00;2.00;;;;;-144.62;100.00;60556.56;5034294;28;45391;-75
2024/01/07 01:02:52;;;;;;;;;4.33;4.33;;;;;-144.62;100.00;60556.56;5038420;28;46688;-75
2024/01/07 01:05:18;;;;;;;;;6.00;5.00;;;;;-144.62;100.00;60556.56;5035075;28;45297;-75
2024/01/07 01:07:43;;;;;;;;;0.67;0.67;;;;;-144.62;100.00;60556.56;5039376;28;45454;-75
2024/01/07 01:10:09;;;;;;;;;1.00;1.00;;;;;-144.62;100.00;60556.56;5033909;28;45390;-74
2024/01/07 01:12:34;;;;;;;;;4.33;3.00;;;;;-144.62;100.00;60556.56;5038465;28;45482;-75
2024/01/07 01:14:59;;;;;;;;;6.00;3.00;;;;;-144.62;100.00;60556.56;5035290;28;45315;-74
2024/01/07 01:17:25;;;;;;;;;1.00;1.00;;;;;-144.62;100.00;60556.56;5039639;28;45299;-74
2024/01/07 01:19:50;;;;;;;;;2.67;2.67;;;;;-144.62;100.00;60556.56;5034687;28;45369;-74
2024/01/07 01:22:15;;;;;;;;;6.00;2.00;;;;;-144.62;100.00;60556.56;5035187;28;47594;-74
2024/01/07 01:24:42;;;;;;;;;2.00;2.00;;;;;-144.62;100.00;60556.56;5038248;28;45580;-74
2024/01/07 01:27:07;;;;;;;;;4.67;3.67;;;;;-144.62;100.00;60556.56;5037403;27;45307;-75
2024/01/07 01:29:32;;;;;;;;;3.00;3.00;;;;;-144.62;100.00;60556.56;5038444;28;45307;-74
2024/01/07 01:31:58;;;;;;;;;5.00;2.00;;;;;-144.62;100.00;60556.56;5038563;27;47604;-75
2024/01/07 01:34:23;;;;;;;;;2.33;2.00;;;;;-144.62;100.00;60556.56;5038826;27;49603;-74
2024/01/07 01:36:49;;;;;;;;;7.67;6.00;;;;;-144.62;100.00;60556.56;5038124;28;45327;-74
2024/01/07 01:39:15;;;;;;;;;6.00;6.00;;;;;-144.62;100.00;60556.56;5047333;28;45533;-74
2024/01/07 01:41:40;;;;;;;;;7.00;5.33;;;;;-144.62;100.00;60556.56;5039116;28;48131;-74
2024/01/07 01:44:06;;;;;;;;;5.33;3.00;;;;;-144.62;100.00;60556.56;5040169;28;45346;-74
2024/01/07 01:46:31;;;;;;;;;5.33;2.00;;;;;-144.62;100.00;60556.56;5039403;28;45488;-74
2024/01/07 01:48:57;;;;;;;;;2.33;2.33;;;;;-144.62;100.00;60556.56;5039659;27;45462;-74
2024/01/07 01:51:22;;;;;;;;;2.00;2.00;;;;;-144.62;100.00;60556.56;5040164;28;45327;-74
2024/01/07 01:53:50;;;;;;;;;4.33;3.00;;;;;-144.62;100.00;60556.56;5034751;28;45287;-74
2024/01/07 01:56:18;;;;;;;;;3.67;2.00;;;;;-144.62;100.00;60556.56;5037540;28;45389;-74
2024/01/07 01:58:44;;;;;;;;;2.00;2.00;;;;;-144.62;100.00;60556.56;5035665;28;45396;-74
2024/01/07 02:01:09;;;;;;;;;5.67;2.00;;;;;-144.62;100.00;60556.56;5037207;28;45646;-74
2024/01/07 02:03:35;;;;;;;;;2.67;2.67;;;;;-144.62;100.00;60556.56;5036422;28;45434;-74
2024/01/07 02:06:00;;;;;;;;;3.00;2.33;;;;;-144.62;100.00;60556.56;5035617;28;45371;-74
2024/01/07 02:08:26;;;;;;;;;2.00;2.00;;;;;-144.62;100.00;60556.56;5040732;27;45221;-75
2024/01/07 02:10:51;;;;;;;;;6.00;6.00;;;;;-144.62;100.00;60556.56;5030092;28;45806;-74
2024/01/07 02:13:17;;;;;;;;;5.00;3.00;;;;;-144.62;100.00;60556.56;5035321;28;45241;-74
2024/01/07 02:15:43;;;;;;;;;3.00;1.67;;;;;-144.62;100.00;60556.56;5031375;28;45245;-74
2024/01/07 02:18:09;;;;;;;;;6.00;2.33;;;;;-144.62;100.00;60556.56;5040799;28;45527;-75
2024/01/07 02:20:35;;;;;;;;;3.00;3.00;;;;;-144.62;100.00;60556.56;5031969;28;46123;-74
2024/01/07 02:23:01;;;;;;;;;3.67;2.00;;;;;-144.62;100.00;60556.56;5039054;28;45528;-74
2024/01/07 02:25:26;;;;;;;;;3.00;1.67;;;;;-144.62;100.00;60556.56;5037909;27;45448;-74
2024/01/07 02:27:51;;;;;;;;;2.00;2.00;;;;;-144.62;100.00;60556.56;5045066;27;45494;-73
2024/01/07 02:30:17;;;;;;;;;3.33;2.00;;;;;-144.62;100.00;60556.56;5035723;27;45695;-73
2024/01/07 02:32:42;;;;;;;;;2.00;2.00;;;;;-144.62;100.00;60556.56;5037430;28;45384;-73
2024/01/07 02:35:08;;;;;;;;;2.00;2.00;;;;;-144.62;100.00;60556.56;5032830;28;45369;-74
2024/01/07 02:37:34;;;;;;;;;3.00;2.00;;;;;-144.62;100.00;60556.56;5039539;28;45423;-74
2024/01/07 02:39:59;;;;;;;;;1.33;1.33;;;;;-144.62;100.00;60556.56;5036516;28;45316;-74
2024/01/07 02:42:24;;;;;;;;;2.33;2.00;;;;;-144.62;100.00;60556.56;5039202;28;45409;-74
2024/01/07 02:44:50;;;;;;;;;2.00;1.33;;;;;-144.62;100.00;60556.56;5030460;28;45441;-74
2024/01/07 02:47:15;;;;;;;;;3.00;3.00;;;;;-144.62;100.00;60556.56;5038705;28;45303;-74
2024/01/07 02:49:40;;;;;;;;;2.00;2.00;;;;;-144.62;100.00;60556.56;5030287;28;48149;-74
2024/01/07 02:52:06;;;;;;;;;2.00;2.00;;;;;-144.62;100.00;60556.56;5024592;27;45310;-74
2024/01/07 02:54:31;;;;;;;;;4.33;3.00;;;;;-144.62;100.00;60556.56;5030328;28;45397;-74
2024/01/07 02:56:56;;;;;;;;;1.00;1.00;;;;;-144.62;100.00;60556.56;5038519;28;45240;-74
2024/01/07 02:59:21;;;;;;;;;3.00;3.00;;;;;-144.62;100.00;60556.56;5035610;28;47650;-74
2024/01/07 03:01:47;;;;;;;;;2.33;2.00;;;;;-144.62;100.00;60556.56;5027045;27;45226;-74
2024/01/07 03:04:15;;;;;;;;;6.00;3.67;;;;;-144.62;100.00;60556.56;5030341;27;44940;-74
2024/01/07 03:06:40;;;;;;;;;6.00;3.00;;;;;-144.62;100.00;60556.56;5039560;28;45277;-74
2024/01/07 03:09:06;;;;;;;;;5.33;5.33;;;;;-144.62;100.00;60556.56;5038506;27;51811;-74
2024/01/07 03:11:31;;;;;;;;;2.00;2.00;;;;;-144.62;100.00;60556.56;5029259;28;45301;-74
2024/01/07 03:13:57;;;;;;;;;3.67;2.00;;;;;-144.62;100.00;60556.56;5034261;28;45440;-74
2024/01/07 03:16:23;;;;;;;;;2.00;2.00;;;;;-144.62;100.00;60556.56;5038330;28;45604;-74
2024/01/07 03:18:49;;;;;;;;;5.67;4.33;;;;;-144.62;100.00;60556.56;5036580;28;45419;-74
2024/01/07 03:21:21;;;;;;;;;3.00;2.33;;;;;-144.62;100.00;60556.56;5030944;28;45265;-74
2024/01/07 03:23:48;;;;;;;;;1.00;1.00;;;;;-144.62;100.00;60556.56;5038136;28;45394;-74
2024/01/07 03:26:14;;;;;;;;;3.67;3.00;;;;;-144.62;100.00;60556.56;5035192;27;45551;-74
2024/01/07 03:28:39;;;;;;;;;6.00;2.33;;;;;-144.62;100.00;60556.56;5034909;28;45316;-74
2024/01/07 03:31:08;;;;;;;;;5.67;3.00;;;;;-144.62;100.00;60556.56;5034740;27;45937;-74
2024/01/07 03:33:33;;;;;;;;;6.33;5.33;;;;;-144.62;100.00;60556.56;5050547;28;45209;-74
2024/01/07 03:35:59;;;;;;;;;3.00;3.00;;;;;-144.62;100.00;60556.56;5037798;28;45464;-74
2024/01/07 03:38:24;;;;;;;;;6.67;5.67;;;;;-144.62;100.00;60556.56;5037665;28;46227;-74
2024/01/07 03:40:49;;;;;;;;;1.33;1.00;;;;;-144.62;100.00;60556.56;5037990;28;45393;-74
2024/01/07 03:43:14;;;;;;;;;5.33;5.00;;;;;-144.62;100.00;60556.56;5032840;27;52587;-74
2024/01/07 03:45:41;;;;;;;;;7.00;4.33;;;;;-144.62;100.00;60556.56;5037838;28;45330;-74
2024/01/07 03:48:06;;;;;;;;;3.00;2.00;;;;;-144.62;100.00;60556.56;5039897;28;47874;-74
2024/01/07 03:50:32;;;;;;;;;5.00;2.00;;;;;-144.62;100.00;60556.56;5033198;28;45327;-74
2024/01/07 03:52:57;;;;;;;;;5.33;5.33;;;;;-144.62;100.00;60556.56;5038001;28;48973;-74
2024/01/07 03:55:22;;;;;;;;;2.00;2.00;;;;;-144.62;100.00;60556.56;5037749;28;45707;-74
2024/01/07 03:57:48;;;;;;;;;2.00;2.00;;;;;-144.62;100.00;60556.56;5037566;27;51116;-74
2024/01/07 04:00:13;;;;;;;;;1.00;1.00;;;;;-144.62;100.00;60556.56;5037155;28;45434;-74
2024/01/07 04:02:39;;;;;;;;;3.00;3.00;;;;;-144.62;100.00;60556.56;5037736;28;45444;-74
2024/01/07 04:05:04;;;;;;;;;5.67;2.00;;;;;-144.62;100.00;60556.56;5035847;28;45260;-74
2024/01/07 04:07:30;;;;;;;;;3.00;1.33;;;;;-144.62;100.00;60556.56;5040877;28;45410;-74
2024/01/07 04:09:55;;;;;;;;;3.00;1.33;;;;;-144.62;100.00;60556.56;5036048;27;45303;-74
2024/01/07 04:12:20;;;;;;;;;5.00;2.00;;;;;-144.62;100.00;60556.56;5037760;27;45199;-74
2024/01/07 04:14:46;;;;;;;;;5.00;5.00;;;;;-144.62;100.00;60556.56;5035814;28;45668;-74
2024/01/07 04:17:11;;;;;;;;;2.67;1.33;;;;;-144.62;100.00;60556.56;5036415;28;45385;-74
2024/01/07 04:19:38;;;;;;;;;1.33;1.33;;;;;-144.62;100.00;60556.56;5036225;28;45626;-74
2024/01/07 04:22:03;;;;;;;;;2.67;2.67;;;;;-144.62;100.00;60556.56;5037237;28;45253;-74
2024/01/07 04:24:28;;;;;;;;;2.00;2.00;;;;;-144.62;100.00;60556.56;5039783;28;45431;-74
2024/01/07 04:26:54;;;;;;;;;4.00;2.00;;;;;-144.62;100.00;60556.56;5039440;27;48013;-74
2024/01/07 04:29:19;;;;;;;;;2.00;1.00;;;;;-144.62;100.00;60556.56;5040327;28;47293;-74
2024/01/07 04:31:44;;;;;;;;;2.67;2.00;;;;;-144.62;100.00;60556.56;5038448;28;45322;-73
2024/01/07 04:34:10;;;;;;;;;3.00;3.00;;;;;-144.62;100.00;60556.56;5041437;27;45581;-74
2024/01/07 04:36:35;;;;;;;;;3.33;2.00;;;;;-144.62;100.00;60556.56;5036997;28;45450;-74
2024/01/07 04:39:00;;;;;;;;;3.00;3.00;;;;;-144.62;100.00;60556.56;5040218;28;59671;-74
2024/01/07 04:41:26;;;;;;;;;4.33;3.00;;;;;-144.62;100.00;60556.56;5038981;27;45484;-74
2024/01/07 04:43:52;;;;;;;;;2.67;2.00;;;;;-144.62;100.00;60556.56;5035847;28;45500;-74
2024/01/07 04:46:17;;;;;;;;;2.00;2.00;;;;;-144.62;100.00;60556.56;5036742;28;47773;-74
2024/01/07 04:48:43;;;;;;;;;2.00;1.67;;;;;-144.62;100.00;60556.56;5036166;28;45417;-74
2024/01/07 04:51:08;;;;;;;;;2.67;2.67;;;;;-144.62;100.00;60556.56;5036305;28;45839;-74
2024/01/07 04:53:33;;;;;;;;;5.00;2.67;;;;;-144.62;100.00;60556.56;5038259;28;45351;-74
2024/01/07 04:55:59;;;;;;;;;6.00;2.00;;;;;-144.62;100.00;60556.56;5035638;28;46364;-74
2024/01/07 04:58:24;;;;;;;;;3.00;1.00;;;;;-144.62;100.00;60556.56;5038144;28;45228;-74
2024/01/07 05:00:50;;;;;;;;;6.33;3.00;;;;;-144.62;100.00;60556.56;5041097;28;45216;-74
2024/01/07 05:03:15;;;;;;;;;6.00;3.00;;;;;-144.62;100.00;60556.56;5036556;28;45278;-74
2024/01/07 05:05:40;;;;;;;;;5.67;2.00;;;;;-144.62;100.00;60556.56;5030293;28;45543;-74
2024/01/07 05:08:06;;;;;;;;;3.67;3.67;;;;;-144.62;100.00;60556.56;5040590;27;45231;-74
2024/01/07 05:10:32;;;;;;;;;3.67;2.33;;;;;-144.62;100.00;60556.56;5035137;28;45261;-74
2024/01/07 05:12:57;;;;;;;;;3.00;3.00;;;;;-144.62;100.00;60556.56;5038866;28;45228;-74
2024/01/07 05:15:23;;;;;;;;;2.67;1.67;;;;;-144.62;100.00;60556.56;5033071;28;45619;-74
2024/01/07 05:17:48;;;;;;;;;2.67;2.00;;;;;-144.62;100.00;60556.56;5039541;27;45373;-74
2024/01/07 05:20:15;;;;;;;;;5.00;3.00;;;;;-144.62;100.00;60556.56;5034050;28;45580;-74
2024/01/07 05:22:41;;;;;;;;;7.00;4.33;;;;;-144.62;100.00;60556.56;5040614;28;45430;-74
2024/01/07 05:25:06;;;;;;;;;5.00;3.00;;;;;-144.62;100.00;60556.56;5034848;27;46367;-74
2024/01/07 05:27:32;;;;;;;;;6.00;3.00;;;;;-144.62;100.00;60556.56;5040205;28;45408;-74
2024/01/07 05:29:57;;;;;;;;;7.00;3.00;;;;;-144.62;100.00;60556.56;5061243;27;45418;-74
2024/01/07 05:32:22;;;;;;;;;7.00;6.00;;;;;-144.62;100.00;60556.56;5040712;28;45356;-74
2024/01/07 05:34:49;;;;;;;;;4.33;4.33;;;;;-144.62;100.00;60556.56;5037437;28;45524;-74
2024/01/07 05:37:14;;;;;;;;;4.33;4.33;;;;;-144.62;100.00;60556.56;5039959;28;45297;-74
2024/01/07 05:39:39;;;;;;;;;2.33;2.33;;;;;-144.62;100.00;60556.56;5039080;28;45466;-74
2024/01/07 05:42:05;;;;;;;;;3.00;3.00;;;;;-144.62;100.00;60556.56;5041493;27;45267;-74
2024/01/07 05:44:30;;;;;;;;;4.00;2.00;;;;;-144.62;100.00;60556.56;5039074;28;45459;-74
2024/01/07 05:46:55;;;;;;;;;5.33;2.67;;;;;-144.62;100.00;60556.56;5040617;28;48496;-74
2024/01/07 05:49:21;;;;;;;;;2.00;2.00;;;;;-144.62;100.00;60556.56;5031595;27;45732;-74
2024/01/07 05:51:46;;;;;;;;;2.00;2.00;;;;;-144.62;100.00;60556.56;5040703;28;45292;-74
2024/01/07 05:54:11;;;;;;;;;2.33;2.33;;;;;-144.62;100.00;60556.56;5037332;28;46656;-74
2024/01/07 05:56:41;;;;;;;;;3.67;3.67;;;;;-144.62;100.00;60556.56;5040158;28;45239;-74
2024/01/07 05:59:07;;;;;;;;;2.00;2.00;;;;;-144.62;100.00;60556.56;5032558;28;45465;-74
2024/01/07 06:01:32;;;;;;;;;7.00;1.00;;;;;-144.62;100.00;60556.56;5037018;28;45415;-73
2024/01/07 06:03:58;;;;;;;;;2.67;2.67;;;;;-144.62;100.00;60556.56;5029836;28;45691;-74
2024/01/07 06:06:23;;;;;;;;;4.00;2.00;;;;;-144.62;100.00;60556.56;5038301;28;45351;-74
2024/01/07 06:08:48;;;;;;;;;3.67;3.67;;;;;-144.62;100.00;60556.56;5040214;27;45296;-74
2024/01/07 06:11:18;;;;;;;;;6.00;3.00;;;;;-144.62;100.00;60556.56;5039126;28;45429;-74
2024/01/07 06:13:44;;;;;;;;;5.67;3.00;;;;;-144.62;100.00;60556.56;5037415;28;47088;-74
2024/01/07 06:16:09;;;;;;;;;2.33;2.33;;;;;-144.62;100.00;60556.56;5032704;27;45486;-74
2024/01/07 06:18:35;;;;;;;;;9.67;5.67;;;;;-144.62;100.00;60556.56;5038202;28;45481;-74
2024/01/07 06:21:00;;;;;;;;;3.00;3.00;;;;;-144.62;100.00;60556.56;5032988;28;45470;-74
2024/01/07 06:23:25;;;;;;;;;3.00;3.00;;;;;-144.62;100.00;60556.56;5034960;28;47165;-75
2024/01/07 06:25:51;;;;;;;;;3.67;3.67;;;;;-144.62;100.00;60556.56;5038686;28;45456;-74
2024/01/07 06:28:16;;;;;;;;;6.00;3.00;;;;;-144.62;100.00;60556.56;5039408;28;45896;-74
2024/01/07 06:30:41;;;;;;;;;7.00;5.00;;;;;-144.62;100.00;60556.56;5037103;28;45399;-74
2024/01/07 06:33:07;;;;;;;;;3.00;3.00;;;;;-144.62;100.00;60556.56;5039251;28;45950;-74
2024/01/07 06:35:32;;;;;;;;;6.00;5.00;;;;;-144.62;100.00;60556.56;5037844;28;45442;-74
2024/01/07 06:37:57;;;;;;;;;5.67;5.00;;;;;-144.62;100.00;60556.56;5038971;28;45461;-74
2024/01/07 06:40:23;;;;;;;;;11.00;5.00;;;;;-144.62;100.00;60556.56;5039066;28;46431;-74
2024/01/07 06:42:48;;;;;;;;;3.00;2.67;;;;;-144.62;100.00;60556.56;5039257;28;46262;-74
2024/01/07 06:45:15;;;;;;;;;4.33;3.00;;;;;-144.62;100.00;60556.56;5039256;28;45402;-74
2024/01/07 06:47:40;;;;;;;;;3.00;3.00;;;;;-144.62;100.00;60556.56;5039085;28;45285;-74
2024/01/07 06:50:06;;;;;;;;;7.00;5.33;;;;;-144.62;100.00;60556.56;5031206;28;45500;-74
2024/01/07 06:52:32;;;;;;;;;5.00;2.00;;;;;-144.62;100.00;60556.56;5038598;28;45512;-75
2024/01/07 06:54:57;;;;;;;;;3.00;3.00;;;;;-144.62;100.00;60556.56;5031106;28;45258;-74
2024/01/07 06:57:22;;;;;;;;;3.67;3.67;;;;;-144.62;100.00;60556.56;5039318;28;45194;-74
2024/01/07 06:59:48;;;;;;;;;4.33;2.67;;;;;-144.62;100.00;60556.56;5031078;27;45421;-74
2024/01/07 07:02:13;;;;;;;;;3.00;3.00;;;;;-144.62;100.00;60556.56;5039078;28;45659;-74
2024/01/07 07:04:38;;;;;;;;;7.00;5.67;;;;;-144.62;100.00;60556.56;5032985;28;46126;-74
2024/01/07 07:07:04;;;;;;;;;5.33;3.00;;;;;-144.62;100.00;60556.56;5039026;28;48196;-74
2024/01/07 07:09:29;;;;;;;;;7.00;4.33;;;;;-144.62;100.00;60556.56;5037691;27;45638;-74
2024/01/07 07:11:54;;;;;;;;;5.67;5.00;;;;;-144.62;100.00;60556.56;5038867;28;59507;-74
2024/01/07 07:14:20;;;;;;;;;5.33;2.00;;;;;-144.62;100.00;60556.56;5035477;28;49946;-74
2024/01/07 07:16:46;;;;;;;;;16.67;7.67;;;;;-144.62;100.00;60556.56;5031312;28;45556;-74
2024/01/07 07:19:14;;;;;;;;;2.67;2.00;;;;;-144.62;100.00;60556.56;5037866;27;45368;-74
2024/01/07 07:21:40;;;;;;;;;3.00;1.00;;;;;-144.62;100.00;60556.56;5034572;28;46181;-74
2024/01/07 07:24:05;;;;;;;;;7.00;3.00;;;;;-144.62;100.00;60556.56;5041242;27;45298;-73
2024/01/07 07:26:31;;;;;;;;;4.33;4.33;;;;;-144.62;100.00;60556.56;5041616;27;45385;-73
2024/01/07 07:28:57;;;;;;;;;9.67;6.33;;;;;-144.62;100.00;60556.56;5041773;28;45307;-73
2024/01/07 07:31:22;;;;;;;;;5.33;4.33;;;;;-144.62;100.00;60556.56;5040847;28;46624;-73
2024/01/07 07:33:47;;;;;;;;;5.00;5.00;;;;;-144.62;100.00;60556.56;5041333;28;45422;-73
2024/01/07 07:36:13;;;;;;;;;4.67;2.33;;;;;-144.62;100.00;60556.56;5039525;27;45283;-73
2024/01/07 07:38:38;;;;;;;;;5.00;3.67;;;;;-144.62;100.00;60556.56;5038479;28;45648;-74
2024/01/07 07:41:04;;;;;;;;;6.00;5.00;;;;;-144.62;100.00;60556.56;5041005;28;46796;-73
2024/01/07 07:43:29;;;;;;;;;6.00;5.00;;;;;-144.62;100.00;60556.56;5039172;28;45505;-74
2024/01/07 07:45:55;;;;;;;;;5.00;4.33;;;;;-144.62;100.00;60556.56;5035332;28;45489;-74
2024/01/07 07:48:20;;;;;;;;;6.33;6.33;;;;;-144.62;100.00;60556.56;5036884;28;44898;-74
2024/01/07 07:50:45;;;;;;;;;6.33;5.00;;;;;-144.62;100.00;60556.56;5031758;28;56724;-74
2024/01/07 07:53:11;;;;;;;;;9.67;6.67;;;;;-144.62;100.00;60556.56;5040862;28;45571;-74
2024/01/07 07:55:36;;;;;;;;;7.00;5.67;;;;;-144.62;100.00;60556.56;5034092;28;45421;-74
2024/01/07 07:58:01;;;;;;;;;11.00;9.00;;;;;-144.62;100.00;60556.56;5041521;28;45318;-74
2024/01/07 08:00:28;;;;;;;;;9.00;9.00;;;;;-144.62;100.00;60556.56;5040763;27;46998;-74
2024/01/07 08:02:53;;;;;;;;;7.33;7.00;;;;;-144.62;100.00;60556.56;5039923;28;45293;-74
2024/01/07 08:05:18;;;;;;;;;7.33;6.67;;;;;-144.62;100.00;60556.56;5029046;28;45535;-75
2024/01/07 08:07:44;;;;;;;;;6.67;6.67;;;;;-144.62;100.00;60556.56;5038943;27;45274;-74
2024/01/07 08:10:09;;;;;;;;;12.00;4.33;;;;;-144.62;100.00;60556.56;5035007;28;46338;-74
2024/01/07 08:12:35;;;;;;;;;7.00;7.00;;;;;-144.62;100.00;60556.56;5037869;28;45253;-75
2024/01/07 08:15:00;;;;;;;;;9.00;7.00;;;;;-144.62;100.00;60556.56;5035018;28;45371;-74
2024/01/07 08:17:25;;;;;;;;;12.33;10.00;;;;;-144.62;100.00;60556.56;5037203;27;45222;-74
2024/01/07 08:19:51;;;;;;;;;7.67;7.67;;;;;-144.62;100.00;60556.56;5036766;28;45367;-74
2024/01/07 08:22:17;;;;;;;;;9.00;9.00;;;;;-144.62;100.00;60556.56;5038094;28;45332;-74
2024/01/07 08:24:42;;;;;;;;;10.00;7.67;;;;;-144.62;100.00;60556.56;5040193;28;46259;-74
2024/01/07 08:27:08;;;;;;;;;11.33;6.33;;;;;-144.62;100.00;60556.56;5041367;28;45480;-74
2024/01/07 08:29:35;;;;;;;;;9.33;6.67;;;;;-144.62;100.00;60556.56;5038757;28;45453;-74
2024/01/07 08:32:01;;;;;;;;;10.00;7.33;;;;;-144.62;100.00;60556.56;5054635;27;45642;-74
2024/01/07 08:34:26;;;;;;;;;16.33;13.33;;;;;-144.62;100.00;60556.56;5040208;27;45482;-74
2024/01/07 08:36:53;;;;;;;;;8.33;8.33;;;;;-144.62;100.00;60556.56;5053810;28;45491;-74
2024/01/07 08:39:19;;;;;;;;;6.33;6.00;;;;;-144.62;100.00;60556.56;5040777;28;45533;-74
2024/01/07 08:41:45;;;;;;;;;7.00;6.67;;;;;-144.62;100.00;60556.56;5038659;28;45314;-75
2024/01/07 08:44:10;;;;;;;;;15.67;14.00;;;;;-144.62;100.00;60556.56;5037249;28;45510;-74
2024/01/07 08:46:36;;;;;;;;;9.00;9.00;;;;;-144.62;100.00;60556.56;5038863;28;45531;-75
2024/01/07 08:49:02;;;;;;;;;10.00;7.33;;;;;-144.62;100.00;60556.56;5034600;28;45496;-74
2024/01/07 08:51:29;;;;;;;;;12.33;9.67;;;;;-144.62;100.00;60556.56;5036848;28;45331;-75
2024/01/07 08:53:55;;;;;;;;;10.67;7.00;;;;;-144.62;100.00;60556.56;5035275;28;45656;-74
2024/01/07 08:56:20;;;;;;;;;7.00;7.00;;;;;-144.62;100.00;60556.56;5038548;28;45296;-74
2024/01/07 08:58:45;;;;;;;;;10.00;10.00;;;;;-144.62;100.00;60556.56;5036064;28;45998;-74
2024/01/07 09:01:11;;;;;;;;;12.67;10.00;;;;;-144.62;100.00;60556.56;5038094;27;45295;-74
2024/01/07 09:03:36;;;;;;;;;9.67;8.33;;;;;-144.62;100.00;60556.56;5035888;28;48773;-74
2024/01/07 09:06:02;;;;;;;;;9.33;7.67;;;;;-144.62;100.00;60556.56;5030092;28;45376;-74
2024/01/07 09:08:27;;;;;;;;;10.67;9.00;;;;;-144.62;100.00;60556.56;5038545;27;46957;-75
2024/01/07 09:10:53;;;;;;;;;15.00;13.00;;;;;-144.62;100.00;60556.56;5030879;28;45270;-74
2024/01/07 09:13:18;;;;;;;;;10.00;10.00;;;;;-144.62;100.00;60556.56;5038479;28;45258;-73
2024/01/07 09:15:43;;;;;;;;;20.67;15.00;;;;;-144.62;100.00;60556.56;5032751;27;45385;-75
2024/01/07 09:18:09;;;;;;;;;9.33;6.67;;;;;-144.62;100.00;60556.56;5039920;28;56504;-74
2024/01/07 09:20:34;;;;;;;;;15.67;15.00;;;;;-144.62;100.00;60556.56;5033315;28;45423;-74
2024/01/07 09:22:59;;;;;;;;;15.00;12.67;;;;;-144.62;100.00;60556.56;5040339;28;45313;-75
2024/01/07 09:25:26;;;;;;;;;12.00;10.33;;;;;-144.62;100.00;60556.56;5040411;27;45461;-74
2024/01/07 09:27:51;;;;;;;;;20.67;14.00;;;;;-144.62;100.00;60556.56;5039951;28;45368;-74
2024/01/07 09:30:17;;;;;;;;;14.67;13.33;;;;;-144.62;100.00;60556.56;5037098;28;45254;-74
2024/01/07 09:32:43;;;;;;;;;16.33;14.67;;;;;-144.62;100.00;60556.56;5038969;28;45251;-74
2024/01/07 09:35:08;;;;;;;;;15.00;13.33;;;;;-144.62;100.00;60556.56;5036771;28;45382;-74
2024/01/07 09:37:35;;;;;;;;;20.00;15.00;;;;;-144.62;100.00;60556.56;5039694;28;46134;-74
2024/01/07 09:40:01;;;;;;;;;15.67;15.67;;;;;-144.62;100.00;60556.56;5037437;28;45395;-74
2024/01/07 09:42:26;;;;;;;;;18.33;15.33;;;;;-144.62;100.00;60556.56;5055671;28;45230;-75
2024/01/07 09:44:52;;;;;;;;;12.00;6.33;;;;;-144.62;100.00;60556.56;5029603;28;45373;-73
2024/01/07 09:47:17;;;;;;;;;16.67;14.33;;;;;-144.62;100.00;60556.56;5040178;28;45320;-74
2024/01/07 09:49:43;;;;;;;;;16.67;15.67;;;;;-144.62;100.00;60556.56;5029311;28;45294;-75
2024/01/07 09:52:11;;;;;;;;;25.00;19.00;;;;;-144.62;100.00;60556.56;5040214;28;45367;-74
2024/01/07 09:54:40;;;;;;;;;12.33;11.00;;;;;-144.62;100.00;60556.56;5031602;28;45601;-74
2024/01/07 09:57:07;;;;;;;;;15.00;15.00;;;;;-144.62;100.00;60556.56;5040302;28;45624;-75
2024/01/07 09:59:37;;;;;;;;;19.00;17.00;;;;;-144.62;100.00;60556.56;5032565;28;45446;-74
2024/01/07 10:02:03;;;;;;;;;14.00;12.33;;;;;-144.62;100.00;60556.56;5039320;28;45301;-74
2024/01/07 10:04:29;;;;;;;;;10.00;8.00;;;;;-144.62;100.00;60556.56;5034462;28;45604;-74
2024/01/07 10:06:55;;;;;;;;;21.33;17.33;;;;;-144.62;100.00;60556.56;5030788;28;45347;-74
2024/01/07 10:09:26;;;;;;;;;18.67;16.67;;;;;-144.62;100.00;60556.56;5039518;27;45621;-74
2024/01/07 10:11:51;;;;;;;;;20.00;17.33;;;;;-144.62;100.00;60556.56;5031852;27;45293;-74
2024/01/07 10:14:17;;;;;;;;;19.67;15.33;;;;;-144.62;100.00;60556.56;5033263;28;45396;-74
2024/01/07 10:16:42;;;;;;;;;15.33;12.67;;;;;-144.62;100.00;60556.56;5031997;28;48196;-73
2024/01/07 10:19:08;;;;;;;;;14.67;12.00;;;;;-144.62;100.00;60556.56;5036510;27;46374;-73
2024/01/07 10:21:34;;;;;;;;;16.67;16.00;;;;;-144.62;100.00;60556.56;5038728;28;45483;-73
2024/01/07 10:24:11;;;;;;;;;19.33;15.67;;;;;-144.62;100.00;60556.56;5039702;28;45517;-74
2024/01/07 10:26:43;;;;;;;;;21.33;18.33;;;;;-144.62;100.00;60556.56;5039205;28;45301;-74
2024/01/07 10:29:08;;;;;;;;;21.33;18.33;;;;;-144.62;100.00;60556.56;5035801;28;45400;-74
2024/01/07 10:31:34;;;;;;;;;17.67;14.33;;;;;-144.62;100.00;60556.56;5038784;27;45461;-73
2024/01/07 10:34:00;;;;;;;;;27.00;19.00;;;;;-144.62;100.00;60556.56;5039353;28;45668;-73
2024/01/07 10:36:25;;;;;;;;;20.33;17.33;;;;;-144.62;100.00;60556.56;5038186;28;48233;-74
2024/01/07 10:38:51;;;;;;;;;25.00;19.00;;;;;-144.62;100.00;60556.56;5039406;27;45376;-73
2024/01/07 10:41:20;;;;;;;;;21.33;18.33;;;;;-144.62;100.00;60556.56;5037115;28;45438;-74
2024/01/07 10:43:49;;;;;;;;;23.00;20.33;;;;;-144.62;100.00;60556.56;5035717;28;45382;-74
2024/01/07 10:46:15;;;;;;;;;23.00;20.67;;;;;-144.62;100.00;60556.56;5034765;28;46060;-74
2024/01/07 10:49:00;;;;;;;;;23.33;18.67;;;;;-144.62;100.00;60556.56;5035970;28;45337;-74
2024/01/07 10:51:27;;;;;;;;;22.33;20.00;;;;;-144.62;100.00;60556.56;5051605;28;45512;-74
2024/01/07 10:53:55;;;;;;;;;33.67;20.00;;;;;-144.62;100.00;60556.56;5036733;28;45622;-74
2024/01/07 10:56:37;;;;;;;;;22.33;20.67;;;;;-144.62;100.00;60556.56;5041077;28;46638;-74
2024/01/07 10:59:03;;;;;;;;;25.33;23.33;;;;;-144.62;100.00;60556.56;5035582;28;45460;-74
2024/01/07 11:01:29;;;;;;;;;22.33;16.67;;;;;-144.62;100.00;60556.56;5042126;27;45324;-74